Time;durP1;ratioP1;P1;durP2;ratioP2;P2;SDS_P1;SDS_P2;PMS_P1;PMS_P2;Temp;Humidity;BMP_temperature;BMP_pressure;BME280_temperature;BME280_humidity;BME280_pressure;Samples;Min_cycle;Max_cycle;Signal;HPM_P1;HPM_P2
2023/02/01 00:00:27;;;;;;;6.13;4.53;;;;;;;2.75;100.00;152071.16;4994458;28;20483;-86
2023/02/01 00:02:54;;;;;;;5.27;4.37;;;;;;;2.75;100.00;152072.47;4994528;28;20444;-86
2023/02/01 00:05:21;;;;;;;6.23;4.30;;;;;;;2.75;100.00;152071.16;4999594;28;20874;-86
2023/02/01 00:07:48;;;;;;;5.20;4.43;;;;;;;2.76;100.00;152073.72;5016774;28;20895;-86
2023/02/01 00:10:14;;;;;;;6.13;4.33;;;;;;;2.73;100.00;152065.97;4987013;28;20605;-87
2023/02/01 00:12:41;;;;;;;5.47;4.10;;;;;;;2.75;100.00;152071.16;5005945;28;20530;-87
2023/02/01 00:15:09;;;;;;;6.20;4.90;;;;;;;2.74;100.00;152068.56;5025793;28;20548;-86
2023/02/01 00:17:38;;;;;;;4.47;3.47;;;;;;;2.72;100.00;152063.44;5033010;28;20448;-87
2023/02/01 00:20:05;;;;;;;5.00;3.90;;;;;;;2.71;100.00;152062.16;5014114;28;20884;-86
2023/02/01 00:22:32;;;;;;;5.30;4.20;;;;;;;2.68;100.00;152053.13;4995601;28;20601;-86
2023/02/01 00:24:59;;;;;;;5.53;4.77;;;;;;;2.75;100.00;152072.47;5013564;28;20494;-86
2023/02/01 00:27:25;;;;;;;4.87;3.97;;;;;;;2.74;100.00;152068.56;5015188;28;20538;-87
2023/02/01 00:29:52;;;;;;;4.60;3.80;;;;;;;2.69;100.00;152055.72;5008630;28;20507;-87
2023/02/01 00:32:19;;;;;;;5.63;4.00;;;;;;;2.68;100.00;152053.13;5013531;28;20489;-87
2023/02/01 00:34:47;;;;;;;3.97;3.57;;;;;;;2.70;100.00;152058.31;5018489;28;20459;-86
2023/02/01 00:37:14;;;;;;;5.33;3.73;;;;;;;2.71;100.00;152062.16;5026944;28;20557;-86
2023/02/01 00:39:41;;;;;;;5.20;4.13;;;;;;;2.63;100.00;152041.56;5031395;28;20453;-86
2023/02/01 00:42:08;;;;;;;5.43;3.73;;;;;;;2.68;100.00;152053.13;4996116;28;20922;-86
2023/02/01 00:44:35;;;;;;;4.77;3.60;;;;;;;2.69;100.00;152057.00;4998176;28;20466;-86
2023/02/01 00:47:02;;;;;;;4.90;3.60;;;;;;;2.69;100.00;152057.00;5019543;28;20438;-86
2023/02/01 00:49:29;;;;;;;4.67;3.80;;;;;;;2.73;100.00;152065.97;5014427;28;20919;-86
2023/02/01 00:51:57;;;;;;;3.87;3.07;;;;;;;2.65;100.00;152046.69;5017786;28;20506;-87
2023/02/01 00:54:25;;;;;;;4.90;3.87;;;;;;;2.72;100.00;152064.75;5012101;28;20558;-86
2023/02/01 00:56:52;;;;;;;5.43;3.47;;;;;;;2.73;100.00;152065.97;4996323;28;21019;-86
2023/02/01 00:59:19;;;;;;;4.77;3.33;;;;;;;2.71;100.00;152060.84;5010457;28;20499;-86
2023/02/01 01:01:46;;;;;;;4.03;3.20;;;;;;;2.73;100.00;152065.97;5006306;28;20477;-86
2023/02/01 01:04:13;;;;;;;4.17;3.10;;;;;;;2.73;100.00;152065.97;5022232;28;20537;-86
2023/02/01 01:06:39;;;;;;;4.33;3.30;;;;;;;2.70;100.00;152059.56;4995508;28;20453;-86
2023/02/01 01:09:08;;;;;;;3.20;2.83;;;;;;;2.72;100.00;152063.44;5010348;28;20458;-86
2023/02/01 01:11:37;;;;;;;4.30;3.20;;;;;;;2.70;100.00;152059.56;4990501;28;20479;-86
2023/02/01 01:14:07;;;;;;;3.93;3.50;;;;;;;2.71;100.00;152060.84;5004279;28;20453;-86
2023/02/01 01:16:34;;;;;;;4.27;3.20;;;;;;;2.73;100.00;152065.97;4979431;28;20860;-87
2023/02/01 01:19:01;;;;;;;4.13;3.73;;;;;;;2.79;100.00;152081.44;4994565;28;20458;-86
2023/02/01 01:21:28;;;;;;;3.63;3.20;;;;;;;2.74;100.00;152068.56;5017381;28;20921;-87
2023/02/01 01:23:55;;;;;;;3.87;2.90;;;;;;;2.73;100.00;152065.97;5013363;28;20561;-86
2023/02/01 01:26:25;;;;;;;4.10;2.70;;;;;;;2.76;100.00;152073.72;5012243;28;20457;-86
2023/02/01 01:28:52;;;;;;;4.60;3.10;;;;;;;2.72;100.00;152063.44;4995522;28;20450;-87
2023/02/01 01:31:20;;;;;;;3.37;2.70;;;;;;;2.68;100.00;152053.13;5017263;28;20563;-87
2023/02/01 01:33:49;;;;;;;4.03;3.13;;;;;;;2.65;100.00;152045.44;4998716;28;21152;-86
2023/02/01 01:36:16;;;;;;;4.67;2.93;;;;;;;2.68;100.00;152054.41;4984756;28;20546;-86
2023/02/01 01:38:43;;;;;;;3.20;2.67;;;;;;;2.74;100.00;152068.56;5014226;28;20560;-86
2023/02/01 01:41:15;;;;;;;3.13;2.80;;;;;;;2.72;100.00;152063.44;5001663;28;20997;-86
2023/02/01 01:43:54;;;;;;;3.90;2.80;;;;;;;2.71;100.00;152062.16;5000592;28;21203;-86
2023/02/01 01:46:24;;;;;;;4.27;3.10;;;;;;;2.74;100.00;152068.56;5006855;28;20465;-86
2023/02/01 01:48:55;;;;;;;2.90;2.60;;;;;;;2.72;100.00;152064.75;5011255;28;20454;-87
2023/02/01 01:51:24;;;;;;;2.87;2.50;;;;;;;2.75;100.00;152072.47;4993503;28;20467;-86
2023/02/01 01:53:57;;;;;;;3.70;2.90;;;;;;;2.73;100.00;152065.97;5027454;28;20463;-86
2023/02/01 01:56:25;;;;;;;4.17;2.90;;;;;;;2.75;100.00;152072.47;5010094;28;20538;-86
2023/02/01 01:58:54;;;;;;;3.80;2.83;;;;;;;2.72;100.00;152063.44;4994198;28;20856;-86
2023/02/01 02:01:21;;;;;;;4.27;2.73;;;;;;;2.75;100.00;152072.47;4989217;28;20453;-86
2023/02/01 02:03:49;;;;;;;3.10;2.80;;;;;;;2.79;100.00;152081.44;5013540;28;20454;-87
2023/02/01 02:06:19;;;;;;;3.60;2.70;;;;;;;2.74;100.00;152069.88;4993517;28;20812;-87
2023/02/01 02:08:46;;;;;;;4.10;2.53;;;;;;;2.70;100.00;152058.31;5018807;28;20810;-87
2023/02/01 02:11:17;;;;;;;2.67;2.33;;;;;;;2.75;100.00;152071.16;5029097;28;20475;-86
2023/02/01 02:13:47;;;;;;;3.60;2.80;;;;;;;2.73;100.00;152065.97;5019303;28;20534;-88
2023/02/01 02:16:35;;;;;;;3.67;3.03;;;;;;;2.72;100.00;152064.75;5011400;28;20459;-86
2023/02/01 02:19:22;;;;;;;4.00;2.70;;;;;;;2.73;100.00;152067.28;4952626;28;20810;-87
2023/02/01 02:21:58;;;;;;;2.87;2.57;;;;;;;2.72;100.00;152063.44;4993436;28;20454;-86
2023/02/01 02:24:38;;;;;;;4.20;3.13;;;;;;;2.78;100.00;152078.88;5010850;28;20478;-86
2023/02/01 02:27:25;;;;;;;5.30;3.10;;;;;;;2.73;100.00;152067.28;4995431;28;20483;-87
2023/02/01 02:30:25;;;;;;;3.83;3.13;;;;;;;2.79;100.00;152081.44;4977783;28;20483;-87
2023/02/01 02:33:32;;;;;;;3.67;2.40;;;;;;;2.80;100.00;152085.31;5008392;28;20472;-86
2023/02/01 02:36:02;;;;;;;3.10;2.80;;;;;;;2.77;100.00;152077.59;4991215;28;20482;-86
2023/02/01 02:38:34;;;;;;;4.10;3.17;;;;;;;2.80;100.00;152085.31;5011930;28;20479;-87
2023/02/01 02:41:11;;;;;;;3.60;3.00;;;;;;;2.79;100.00;152082.72;5009597;28;20958;-86
2023/02/01 02:49:22;;;;;;;4.17;3.50;;;;;;;2.80;100.00;152084.03;5009569;28;20553;-86
2023/02/01 02:54:47;;;;;;;3.83;3.00;;;;;;;2.84;100.00;152094.28;4991234;28;20810;-86
2023/02/01 03:05:35;;;;;;;3.90;2.90;;;;;;;2.84;100.00;152094.28;5016110;28;20442;-86
2023/02/01 03:08:04;;;;;;;4.50;3.43;;;;;;;2.83;100.00;152093.00;5010614;28;20847;-86
2023/02/01 03:10:37;;;;;;;4.57;3.33;;;;;;;2.85;100.00;152096.88;5002373;28;20480;-86
2023/02/01 03:13:06;;;;;;;3.77;3.23;;;;;;;2.84;100.00;152095.59;5000928;28;20457;-86
2023/02/01 03:15:37;;;;;;;4.07;3.20;;;;;;;2.84;100.00;152094.28;5013070;28;20451;-86
2023/02/01 03:18:07;;;;;;;3.73;3.33;;;;;;;2.88;100.00;152104.59;4993971;28;20514;-86
2023/02/01 03:20:35;;;;;;;5.40;3.40;;;;;;;2.87;100.00;152103.31;4991047;28;20464;-87
2023/02/01 03:23:03;;;;;;;3.57;2.87;;;;;;;2.82;100.00;152089.16;4977407;28;21015;-86
2023/02/01 03:25:31;;;;;;;3.47;2.93;;;;;;;2.83;100.00;152091.75;5008516;28;20485;-85
2023/02/01 03:28:01;;;;;;;4.40;3.43;;;;;;;2.92;100.00;152116.16;5007679;28;20466;-86
2023/02/01 03:30:32;;;;;;;5.37;3.13;;;;;;;2.88;100.00;152104.59;5010022;28;20478;-86
2023/02/01 03:33:00;;;;;;;4.03;3.07;;;;;;;2.86;100.00;152099.47;4997494;28;20813;-86
2023/02/01 03:35:37;;;;;;;4.27;3.60;;;;;;;2.85;100.00;152096.88;4957584;28;20497;-86
2023/02/01 03:38:09;;;;;;;5.60;3.33;;;;;;;2.90;100.00;152111.03;4954240;28;20451;-86
2023/02/01 03:40:40;;;;;;;4.47;3.50;;;;;;;2.88;100.00;152104.59;4970163;28;20862;-86
2023/02/01 03:43:12;;;;;;;4.87;3.57;;;;;;;2.89;100.00;152108.44;4963561;28;20457;-86
2023/02/01 03:45:43;;;;;;;5.00;3.33;;;;;;;2.89;100.00;152108.44;4968943;28;20510;-86
2023/02/01 03:48:11;;;;;;;4.83;3.27;;;;;;;2.91;100.00;152112.34;4974595;28;20539;-86
2023/02/01 03:50:44;;;;;;;4.40;3.40;;;;;;;2.88;100.00;152104.59;4959324;28;20465;-86
2023/02/01 03:53:14;;;;;;;4.17;3.07;;;;;;;2.86;100.00;152099.47;4991981;28;20856;-86
2023/02/01 03:55:42;;;;;;;3.30;2.97;;;;;;;2.88;100.00;152104.59;4999718;28;20568;-86
2023/02/01 03:58:13;;;;;;;3.40;2.80;;;;;;;2.87;100.00;152103.31;4956574;28;20458;-86
2023/02/01 04:00:40;;;;;;;3.37;3.07;;;;;;;2.83;100.00;152093.00;4974427;28;20452;-86
2023/02/01 04:03:08;;;;;;;3.63;2.83;;;;;;;2.87;100.00;152102.00;4968607;28;20470;-86
2023/02/01 04:05:35;;;;;;;3.90;3.33;;;;;;;2.82;100.00;152090.44;4989119;28;20567;-86
2023/02/01 04:08:06;;;;;;;4.30;3.63;;;;;;;2.83;100.00;152091.75;4973619;28;20450;-86
2023/02/01 04:10:33;;;;;;;3.73;2.87;;;;;;;2.81;100.00;152086.56;4972989;28;20573;-85
2023/02/01 04:13:00;;;;;;;3.80;3.30;;;;;;;2.85;100.00;152098.19;4972414;28;20487;-86
2023/02/01 04:15:27;;;;;;;3.83;3.07;;;;;;;2.89;100.00;152107.16;4990179;28;20899;-86
2023/02/01 04:17:53;;;;;;;4.40;3.07;;;;;;;2.87;100.00;152103.31;4988218;28;20543;-86
2023/02/01 04:20:20;;;;;;;6.47;3.27;;;;;;;2.86;100.00;152099.47;4973150;28;20865;-86
2023/02/01 04:22:47;;;;;;;4.10;3.73;;;;;;;2.85;100.00;152096.88;4990961;28;20894;-86
2023/02/01 04:25:17;;;;;;;3.57;3.10;;;;;;;2.92;100.00;152114.88;4988936;28;20462;-86
2023/02/01 04:27:46;;;;;;;3.40;2.80;;;;;;;2.87;100.00;152102.00;4986551;28;20495;-86
2023/02/01 04:30:13;;;;;;;6.27;3.70;;;;;;;2.87;100.00;152103.31;4988440;28;20457;-86
2023/02/01 04:32:40;;;;;;;3.77;3.37;;;;;;;2.89;100.00;152107.16;4971772;28;20547;-86
2023/02/01 04:35:08;;;;;;;3.50;3.20;;;;;;;2.88;100.00;152105.91;4971977;28;20458;-85
2023/02/01 04:37:35;;;;;;;4.30;3.47;;;;;;;2.89;100.00;152107.16;4971513;28;20490;-86
2023/02/01 04:40:03;;;;;;;5.43;3.60;;;;;;;2.93;100.00;152117.47;4971972;28;20514;-86
2023/02/01 04:42:31;;;;;;;4.30;3.53;;;;;;;2.93;100.00;152117.47;4990078;28;20530;-86
2023/02/01 04:44:58;;;;;;;4.60;3.13;;;;;;;2.93;100.00;152117.47;4971697;28;20853;-86
2023/02/01 04:47:24;;;;;;;3.40;3.10;;;;;;;2.91;100.00;152112.34;4989366;28;20559;-87
2023/02/01 04:49:51;;;;;;;4.80;3.60;;;;;;;2.94;100.00;152120.00;4973272;28;20901;-87
2023/02/01 04:52:18;;;;;;;3.90;3.50;;;;;;;2.93;100.00;152118.75;4987044;28;20474;-86
2023/02/01 04:54:44;;;;;;;3.97;3.40;;;;;;;2.91;100.00;152113.56;5001989;28;20563;-86
2023/02/01 04:57:13;;;;;;;6.13;4.20;;;;;;;2.92;100.00;152114.88;4988138;28;20457;-86
2023/02/01 04:59:41;;;;;;;4.03;3.20;;;;;;;2.93;100.00;152118.75;4999282;28;20559;-86
2023/02/01 05:02:08;;;;;;;4.13;3.70;;;;;;;2.97;100.00;152127.75;4993538;28;20556;-86
2023/02/01 05:04:34;;;;;;;4.30;3.57;;;;;;;2.96;100.00;152126.50;4990381;28;20493;-86
2023/02/01 05:07:01;;;;;;;4.13;3.73;;;;;;;2.96;100.00;152126.50;4986471;28;20447;-87
2023/02/01 05:09:27;;;;;;;3.80;3.40;;;;;;;2.96;100.00;152126.50;4962403;28;20454;-87
2023/02/01 05:14:38;;;;;;;4.13;3.57;;;;;;;2.96;100.00;152126.50;4963394;28;20460;-86
2023/02/01 05:17:06;;;;;;;4.87;3.40;;;;;;;3.00;100.00;152135.47;5002057;28;20452;-86
2023/02/01 05:19:33;;;;;;;3.57;2.90;;;;;;;2.97;100.00;152127.75;4995344;28;20552;-86
2023/02/01 05:22:00;;;;;;;9.33;3.87;;;;;;;2.97;100.00;152127.75;4993963;28;20463;-86
2023/02/01 05:24:26;;;;;;;3.80;2.97;;;;;;;2.94;100.00;152120.00;4992648;28;20470;-86
2023/02/01 05:26:53;;;;;;;5.07;3.87;;;;;;;2.96;100.00;152125.19;4990735;28;20552;-87
2023/02/01 05:29:20;;;;;;;3.10;2.50;;;;;;;2.99;100.00;152132.91;5000773;28;20540;-87
2023/02/01 05:31:47;;;;;;;3.20;2.80;;;;;;;2.99;100.00;152132.91;4975040;28;20472;-86
2023/02/01 05:34:15;;;;;;;2.67;2.23;;;;;;;2.99;100.00;152132.91;4993034;28;20462;-86
2023/02/01 05:36:42;;;;;;;3.77;3.00;;;;;;;3.03;100.00;152143.19;4991808;28;20455;-87
2023/02/01 05:39:10;;;;;;;3.40;2.57;;;;;;;3.04;100.00;152145.78;4985890;28;20457;-86
2023/02/01 05:41:36;;;;;;;3.13;2.60;;;;;;;3.05;100.00;152148.31;4991685;28;20916;-86
2023/02/01 05:44:03;;;;;;;3.63;2.93;;;;;;;3.03;100.00;152143.19;4988406;28;20460;-86
2023/02/01 05:46:30;;;;;;;2.73;2.50;;;;;;;3.04;100.00;152145.78;4988466;28;20951;-86
2023/02/01 05:48:56;;;;;;;3.33;2.80;;;;;;;3.02;100.00;152140.59;4992325;28;20931;-87
2023/02/01 05:51:24;;;;;;;3.40;2.40;;;;;;;3.02;100.00;152140.59;5000405;28;20518;-86
2023/02/01 05:53:51;;;;;;;2.63;2.43;;;;;;;3.05;100.00;152148.31;4991417;28;20471;-85
2023/02/01 05:56:18;;;;;;;2.73;2.13;;;;;;;3.04;100.00;152145.78;4987036;28;20851;-86
2023/02/01 05:58:45;;;;;;;3.70;2.70;;;;;;;3.04;100.00;152145.78;4972469;28;20494;-87
2023/02/01 06:01:11;;;;;;;3.77;3.13;;;;;;;2.99;100.00;152132.91;4991726;28;20530;-86
2023/02/01 06:03:38;;;;;;;3.60;2.40;;;;;;;3.03;100.00;152144.47;4989164;28;20584;-86
2023/02/01 06:06:05;;;;;;;4.33;2.60;;;;;;;3.03;100.00;152143.19;4989602;28;20849;-86
2023/02/01 06:08:54;;;;;;;2.80;2.60;;;;;;;3.06;100.00;152152.22;4979491;28;20559;-86
2023/02/01 06:11:21;;;;;;;3.07;2.77;;;;;;;3.09;100.00;152158.66;4980368;28;20878;-86
2023/02/01 06:13:48;;;;;;;4.43;3.30;;;;;;;3.06;100.00;152150.91;4979324;28;20461;-86
2023/02/01 06:16:15;;;;;;;3.27;2.30;;;;;;;3.14;100.00;152171.50;4990968;28;20451;-86
2023/02/01 06:18:42;;;;;;;3.20;2.50;;;;;;;3.03;100.00;152143.19;4980216;28;20459;-86
2023/02/01 06:21:09;;;;;;;4.40;3.00;;;;;;;3.02;100.00;152140.59;4989511;28;20543;-86
2023/02/01 06:23:37;;;;;;;2.87;2.40;;;;;;;3.00;100.00;152135.47;4985071;28;20809;-86
2023/02/01 06:26:07;;;;;;;3.80;3.40;;;;;;;2.97;100.00;152129.03;4972098;28;20538;-86
2023/02/01 06:28:34;;;;;;;3.70;3.00;;;;;;;2.92;100.00;152114.88;4975623;28;20542;-86
2023/02/01 06:31:06;;;;;;;3.50;2.50;;;;;;;2.97;100.00;152127.75;4989930;28;20914;-86
2023/02/01 06:33:33;;;;;;;5.53;3.23;;;;;;;2.97;100.00;152129.03;4993685;28;20993;-86
2023/02/01 06:36:01;;;;;;;4.10;3.10;;;;;;;2.94;100.00;152120.00;5006874;28;20462;-86
2023/02/01 06:38:28;;;;;;;3.50;3.03;;;;;;;2.98;100.00;152131.63;4986101;28;20455;-86
2023/02/01 06:40:57;;;;;;;3.17;2.63;;;;;;;2.91;100.00;152112.34;4997502;28;20455;-86
2023/02/01 06:43:25;;;;;;;3.70;3.00;;;;;;;2.91;100.00;152113.56;5001761;28;20570;-86
2023/02/01 06:45:52;;;;;;;3.33;2.50;;;;;;;2.91;100.00;152112.34;4993045;28;21125;-85
2023/02/01 06:48:19;;;;;;;3.40;3.10;;;;;;;2.93;100.00;152118.75;5007584;28;20515;-86
2023/02/01 06:50:46;;;;;;;5.60;3.13;;;;;;;2.98;100.00;152131.63;4999166;28;20525;-86
2023/02/01 06:53:12;;;;;;;2.93;2.50;;;;;;;2.99;100.00;152132.91;4994358;28;20455;-86
2023/02/01 06:55:39;;;;;;;5.20;3.93;;;;;;;2.99;100.00;152134.16;4996110;28;20461;-86
2023/02/01 06:58:07;;;;;;;3.60;3.30;;;;;;;3.03;100.00;152143.19;5005852;28;20531;-86
2023/02/01 07:00:34;;;;;;;5.13;3.20;;;;;;;3.02;100.00;152140.59;5007333;28;20459;-87
2023/02/01 07:03:02;;;;;;;8.30;3.13;;;;;;;2.95;100.00;152122.59;5018359;28;20557;-87
2023/02/01 07:05:29;;;;;;;3.57;3.23;;;;;;;3.01;100.00;152139.34;5019214;28;20802;-86
2023/02/01 07:07:56;;;;;;;3.73;2.80;;;;;;;3.03;100.00;152143.19;4995039;28;20462;-86
2023/02/01 07:10:23;;;;;;;3.50;3.20;;;;;;;3.05;100.00;152148.31;4997488;28;20458;-86
2023/02/01 07:12:50;;;;;;;5.40;3.37;;;;;;;3.03;100.00;152143.19;5007647;28;20568;-86
2023/02/01 07:15:18;;;;;;;4.57;3.33;;;;;;;3.02;100.00;152141.91;4997077;28;20459;-86
2023/02/01 07:17:46;;;;;;;4.40;3.53;;;;;;;3.03;100.00;152144.47;4997101;28;20512;-86
2023/02/01 07:20:13;;;;;;;4.47;2.97;;;;;;;3.03;100.00;152143.19;5008028;28;20450;-86
2023/02/01 07:22:40;;;;;;;3.87;3.17;;;;;;;3.04;100.00;152145.78;4996812;28;20483;-86
2023/02/01 07:25:07;;;;;;;4.60;3.63;;;;;;;3.07;100.00;152153.50;4999677;28;20466;-86
2023/02/01 07:27:35;;;;;;;3.60;3.17;;;;;;;3.11;100.00;152163.78;5009237;28;20902;-86
2023/02/01 07:30:02;;;;;;;5.07;3.10;;;;;;;3.10;100.00;152161.19;5017223;28;20494;-86
2023/02/01 07:32:30;;;;;;;3.13;2.77;;;;;;;3.12;100.00;152166.38;5022511;28;20478;-86
2023/02/01 07:34:57;;;;;;;3.40;2.40;;;;;;;3.12;100.00;152166.38;5006595;28;20488;-86
2023/02/01 07:37:24;;;;;;;2.77;2.57;;;;;;;3.11;100.00;152162.47;5003651;28;20560;-86
2023/02/01 07:39:51;;;;;;;3.63;2.90;;;;;;;3.17;100.00;152177.94;5005781;28;20456;-86
2023/02/01 07:42:18;;;;;;;4.67;2.90;;;;;;;3.18;100.00;152181.78;5004166;28;20546;-86
2023/02/01 07:44:45;;;;;;;3.50;3.20;;;;;;;3.18;100.00;152180.53;4983633;28;20569;-86
2023/02/01 07:47:11;;;;;;;2.80;2.60;;;;;;;3.23;100.00;152194.63;4968394;28;20553;-86
2023/02/01 07:49:39;;;;;;;3.63;2.70;;;;;;;3.23;100.00;152194.63;4963169;28;20459;-87
2023/02/01 07:52:06;;;;;;;4.10;2.57;;;;;;;3.27;100.00;152204.97;4967990;28;20573;-86
2023/02/01 07:54:33;;;;;;;4.60;2.60;;;;;;;3.29;100.00;152208.81;4957112;28;20500;-86
2023/02/01 07:57:00;;;;;;;3.30;2.90;;;;;;;3.32;100.00;152217.81;4957472;28;20456;-86
2023/02/01 07:59:26;;;;;;;3.97;2.97;;;;;;;3.35;100.00;152224.25;4968526;28;20490;-87
2023/02/01 08:01:52;;;;;;;3.73;3.20;;;;;;;3.39;100.00;152235.81;4967114;28;20436;-86
2023/02/01 08:04:19;;;;;;;4.73;3.20;;;;;;;3.45;100.00;152250.00;4969372;28;20467;-86
2023/02/01 08:06:47;;;;;;;4.93;2.83;;;;;;;3.43;100.00;152244.84;4969681;28;20302;-86
2023/02/01 08:09:14;;;;;;;5.83;2.63;;;;;;;3.46;100.00;152253.88;4970369;28;20480;-87
2023/02/01 08:11:41;;;;;;;4.67;3.50;;;;;;;3.43;100.00;152244.84;4970313;28;20540;-86
2023/02/01 08:14:08;;;;;;;4.87;2.97;;;;;;;3.42;100.00;152243.56;4961042;28;20985;-87
2023/02/01 08:16:37;;;;;;;5.80;3.50;;;;;;;3.43;100.00;152244.84;4937363;28;20466;-87
2023/02/01 08:19:03;;;;;;;6.67;3.17;;;;;;;3.41;100.00;152239.72;4963712;28;20459;-86
2023/02/01 08:21:36;;;;;;;3.00;2.70;;;;;;;3.41;100.00;152241.00;4965338;28;20547;-86
2023/02/01 08:24:07;;;;;;;3.63;3.30;;;;;;;3.45;100.00;152250.00;4960353;28;20489;-86
2023/02/01 08:26:34;;;;;;;4.70;2.93;;;;;;;3.45;100.00;152251.28;4967465;28;20460;-87
2023/02/01 08:29:02;;;;;;;3.77;3.00;;;;;;;3.49;100.00;152261.59;4970550;28;20459;-87
2023/02/01 08:31:30;;;;;;;3.00;2.60;;;;;;;3.48;100.00;152259.00;4962458;28;20456;-86
2023/02/01 08:33:59;;;;;;;4.03;3.07;;;;;;;3.47;100.00;152256.44;4958542;28;20754;-86
2023/02/01 08:36:27;;;;;;;3.30;3.00;;;;;;;3.47;100.00;152255.13;4972572;28;20460;-86
2023/02/01 08:38:53;;;;;;;2.70;2.50;;;;;;;3.51;100.00;152266.75;4957757;28;20481;-87
2023/02/01 08:41:23;;;;;;;2.67;2.47;;;;;;;3.54;100.00;152274.47;4961610;28;20457;-86
2023/02/01 08:43:50;;;;;;;4.67;3.17;;;;;;;3.62;100.00;152295.06;4968742;28;20452;-87
2023/02/01 08:46:17;;;;;;;3.60;3.07;;;;;;;3.58;100.00;152284.75;4971215;28;20814;-86
2023/02/01 08:48:46;;;;;;;3.77;3.10;;;;;;;3.62;100.00;152295.06;4955782;28;21227;-86
2023/02/01 08:51:14;;;;;;;4.30;2.77;;;;;;;3.72;100.00;152318.22;4972568;28;20494;-87
2023/02/01 08:53:42;;;;;;;4.47;2.93;;;;;;;3.75;100.00;152325.94;4966378;28;20491;-86
2023/02/01 08:56:10;;;;;;;4.67;2.87;;;;;;;3.77;100.00;152331.09;4963071;28;20456;-86
2023/02/01 08:58:38;;;;;;;6.10;4.07;;;;;;;3.79;100.00;152337.53;4960106;28;20981;-86
2023/02/01 09:01:05;;;;;;;5.97;2.87;;;;;;;3.87;100.00;152356.81;4960250;28;20480;-86
2023/02/01 09:03:32;;;;;;;4.73;3.37;;;;;;;3.83;100.00;152346.56;4972300;28;20473;-86
2023/02/01 09:06:03;;;;;;;4.20;3.33;;;;;;;3.86;100.00;152354.28;4960901;28;20485;-87
2023/02/01 09:08:29;;;;;;;3.50;2.70;;;;;;;3.83;100.00;152346.56;4946665;28;20563;-86
2023/02/01 09:10:59;;;;;;;5.93;3.17;;;;;;;3.83;100.00;152347.84;4970619;28;20454;-86
2023/02/01 09:13:26;;;;;;;3.93;3.10;;;;;;;3.82;100.00;152343.97;4969591;28;20481;-87
2023/02/01 09:15:54;;;;;;;4.37;2.97;;;;;;;3.81;100.00;152341.41;4966259;28;20529;-87
2023/02/01 09:18:21;;;;;;;2.90;2.47;;;;;;;3.81;100.00;152342.72;4960382;28;20441;-86
2023/02/01 09:20:48;;;;;;;4.87;2.80;;;;;;;3.81;100.00;152342.72;4969088;28;20447;-87
2023/02/01 09:23:15;;;;;;;6.00;3.40;;;;;;;3.80;100.00;152340.13;4970734;28;20465;-86
2023/02/01 09:25:42;;;;;;;3.30;2.87;;;;;;;3.83;100.00;152346.56;4953405;28;20528;-86
2023/02/01 09:28:08;;;;;;;4.70;3.33;;;;;;;3.82;100.00;152343.97;4970341;28;20853;-87
2023/02/01 09:30:36;;;;;;;3.70;2.50;;;;;;;3.84;100.00;152350.41;4970234;28;20541;-86
2023/02/01 09:33:04;;;;;;;4.77;3.07;;;;;;;3.90;100.00;152364.56;4969480;28;20513;-86
2023/02/01 09:35:31;;;;;;;3.87;2.83;;;;;;;3.88;100.00;152359.44;4974590;28;20456;-87
2023/02/01 09:37:58;;;;;;;3.10;2.80;;;;;;;3.85;100.00;152353.00;4972508;28;20437;-86
2023/02/01 09:40:25;;;;;;;5.20;3.43;;;;;;;3.89;100.00;152362.00;4973885;28;20545;-87
2023/02/01 09:43:07;;;;;;;5.30;3.10;;;;;;;3.89;100.00;152362.00;4959330;28;20450;-86
2023/02/01 09:45:38;;;;;;;3.80;3.27;;;;;;;3.99;100.00;152387.75;4974650;28;20793;-87
2023/02/01 09:48:12;;;;;;;3.43;3.00;;;;;;;4.03;100.00;152398.03;4972460;28;20559;-87
2023/02/01 09:50:41;;;;;;;3.90;2.83;;;;;;;4.14;100.00;152426.38;4968769;28;20453;-86
2023/02/01 09:53:13;;;;;;;5.47;4.00;;;;;;;4.17;100.00;152435.41;4965037;28;20553;-86
2023/02/01 09:55:42;;;;;;;4.90;3.03;;;;;;;4.21;100.00;152444.41;4970941;28;21240;-87
2023/02/01 09:58:13;;;;;;;4.50;3.50;;;;;;;4.28;100.00;152462.47;4967908;28;20467;-86
2023/02/01 10:00:41;;;;;;;5.43;3.63;;;;;;;4.30;100.00;152467.59;4959135;28;20509;-86
2023/02/01 10:03:12;;;;;;;8.77;4.00;;;;;;;4.38;100.00;152486.91;4968499;28;20982;-87
2023/02/01 10:05:57;;;;;;;6.57;3.47;;;;;;;4.44;100.00;152503.69;4961614;28;20457;-87
2023/02/01 10:08:31;;;;;;;9.13;4.07;;;;;;;4.45;100.00;152506.22;4958946;28;20878;-86
2023/02/01 10:11:05;;;;;;;7.67;3.23;;;;;;;4.43;100.00;152501.09;4959019;28;20651;-86
2023/02/01 10:13:41;;;;;;;6.10;3.90;;;;;;;4.42;100.00;152497.25;4967145;28;20517;-86
2023/02/01 10:16:15;;;;;;;5.70;3.47;;;;;;;4.43;100.00;152501.09;4957317;28;20975;-87
2023/02/01 10:18:56;;;;;;;5.13;2.93;;;;;;;4.46;100.00;152507.53;4958426;28;20452;-87
2023/02/01 10:21:38;;;;;;;7.60;3.57;;;;;;;4.45;100.00;152504.97;4957739;28;20827;-87
2023/02/01 10:24:29;;;;;;;8.33;3.40;;;;;;;4.49;100.00;152516.56;4966069;28;20546;-86
2023/02/01 10:27:00;;;;;;;5.23;3.10;;;;;;;4.49;100.00;152516.56;4966408;28;20545;-87
2023/02/01 10:29:33;;;;;;;6.40;3.30;;;;;;;4.50;100.00;152517.84;4970995;28;20985;-87
2023/02/01 10:32:00;;;;;;;12.30;3.53;;;;;;;4.57;99.93;152537.19;4968322;28;20478;-87
2023/02/01 10:34:31;;;;;;;4.47;3.00;;;;;;;4.59;100.00;152542.31;4966270;28;21079;-86
2023/02/01 10:37:01;;;;;;;7.13;4.20;;;;;;;4.63;100.00;152552.59;4961647;28;20865;-87
2023/02/01 10:39:28;;;;;;;6.10;3.10;;;;;;;4.68;98.00;152565.53;4968014;28;20518;-86
2023/02/01 10:41:56;;;;;;;4.27;2.40;;;;;;;4.66;99.93;152560.34;4955511;28;20450;-86
2023/02/01 10:44:26;;;;;;;4.30;2.53;;;;;;;4.62;100.00;152550.06;4948931;28;20457;-87
2023/02/01 10:46:53;;;;;;;5.10;3.30;;;;;;;4.63;99.48;152551.34;4966788;28;20449;-87
2023/02/01 10:49:23;;;;;;;7.97;3.07;;;;;;;4.64;99.13;152555.19;4967887;28;20486;-86
2023/02/01 10:51:56;;;;;;;5.03;2.87;;;;;;;4.68;99.25;152565.53;4962046;28;20445;-86
2023/02/01 10:54:33;;;;;;;7.70;3.40;;;;;;;4.77;97.15;152588.69;4965977;28;20513;-87
2023/02/01 10:57:00;;;;;;;4.97;2.60;;;;;;;4.80;97.83;152596.44;4967587;28;20449;-87
2023/02/01 10:59:29;;;;;;;6.83;3.33;;;;;;;4.79;96.87;152593.84;4966584;28;20464;-86
2023/02/01 11:02:00;;;;;;;6.43;2.60;;;;;;;4.80;98.28;152595.13;4963480;28;20830;-87
2023/02/01 11:04:27;;;;;;;5.50;3.00;;;;;;;4.83;96.68;152604.16;4961740;28;20461;-87
2023/02/01 11:07:08;;;;;;;6.87;3.80;;;;;;;4.77;96.34;152588.69;4959981;28;20468;-87
2023/02/01 11:09:36;;;;;;;5.07;3.10;;;;;;;4.86;95.00;152610.63;4966693;28;20454;-86
2023/02/01 11:12:03;;;;;;;7.00;3.13;;;;;;;4.81;94.22;152599.03;4959460;28;20817;-87
2023/02/01 11:14:39;;;;;;;6.17;2.70;;;;;;;4.83;94.48;152602.88;4963338;28;20485;-87
2023/02/01 11:17:26;;;;;;;5.27;2.57;;;;;;;4.87;94.59;152613.22;4951229;28;20450;-86
2023/02/01 11:20:00;;;;;;;5.80;2.57;;;;;;;4.87;95.32;152614.47;4961197;28;20974;-87
2023/02/01 11:22:29;;;;;;;6.27;2.77;;;;;;;4.96;95.00;152636.38;4965182;28;20449;-87
2023/02/01 11:24:56;;;;;;;6.00;3.10;;;;;;;4.92;95.87;152627.34;4968392;28;20457;-87
2023/02/01 11:27:24;;;;;;;6.33;2.70;;;;;;;4.83;95.61;152604.16;4966207;28;20519;-87
2023/02/01 11:29:53;;;;;;;11.33;2.80;;;;;;;4.80;95.31;152596.44;4965269;28;20450;-87
2023/02/01 11:32:21;;;;;;;7.03;3.23;;;;;;;4.82;93.51;152601.56;4958590;28;20574;-87
2023/02/01 11:34:50;;;;;;;3.50;2.60;;;;;;;4.79;94.42;152593.84;4959401;28;20540;-87
2023/02/01 11:37:21;;;;;;;7.40;3.43;;;;;;;4.85;94.96;152609.31;4966461;28;20447;-87
2023/02/01 11:39:56;;;;;;;4.83;2.27;;;;;;;4.90;93.62;152622.19;4969469;28;20465;-87
2023/02/01 11:42:23;;;;;;;7.27;3.13;;;;;;;4.93;92.02;152629.94;4952141;28;21097;-87
2023/02/01 11:44:50;;;;;;;5.40;2.60;;;;;;;4.98;91.87;152641.53;4967232;28;20454;-87
2023/02/01 11:47:23;;;;;;;6.23;2.50;;;;;;;5.07;91.97;152664.75;4964800;28;20454;-87
2023/02/01 11:49:51;;;;;;;9.53;3.03;;;;;;;5.14;90.88;152681.47;4965170;28;22523;-87
2023/02/01 11:52:37;;;;;;;4.17;2.53;;;;;;;5.06;94.19;152660.84;4970893;28;20529;-86
2023/02/01 11:55:31;;;;;;;6.30;2.37;;;;;;;5.06;91.02;152660.84;4968804;28;20778;-87